K5WRW-WX Weather Reports


Display with metric or nautical units.
time (UTC)temp
F
wind
direction
speed
MPH
gust
MPH
rain 1hr
in
rain 24hr
in
rain mn
in
humidity
%
barometer
mb
20200219094017 39 0 7.0 9.0 0.00 0.00 0.00 75 1025.4
20200219093017 39 0 8.0 10.0 0.00 0.00 0.00 75 1025.5
20200219092017 39 0 6.0 8.0 0.00 0.00 0.00 74 1025.5
20200219091017 39 0 6.0 9.0 0.00 0.00 0.00 74 1025.5
20200219090017 39 0 10.0 12.0 0.00 0.00 0.00 74 1025.5
20200219085017 39 0 7.0 9.0 0.00 0.00 0.00 74 1025.5
20200219084017 39 0 8.0 10.0 0.00 0.00 0.00 74 1025.7
20200219083017 40 0 6.0 9.0 0.00 0.00 0.00 74 1025.9
20200219082017 40 0 6.0 9.0 0.00 0.00 0.00 73 1025.9
20200219081017 40 0 6.0 9.0 0.00 0.00 0.00 73 1026.2
20200219080016 40 0 6.0 10.0 0.00 0.00 0.00 72 1026.3
20200219075016 40 0 6.0 8.0 0.00 0.00 0.00 72 1026.2
20200219074017 41 0 9.0 12.0 0.00 0.00 0.00 72 1026.1
20200219073016 41 0 8.0 12.0 0.00 0.00 0.00 72 1026.1
20200219072016 41 0 5.0 8.0 0.00 0.00 0.00 72 1026.3
20200219071016 41 0 5.0 8.0 0.00 0.00 0.00 72 1026.4
20200219070017 41 0 7.0 9.0 0.00 0.00 0.00 71 1026.2
20200219065019 41 0 6.0 9.0 0.00 0.00 0.00 71 1026.2
20200219064016 42 0 9.0 11.0 0.00 0.00 0.00 71 1026.2
20200219063016 42 0 7.0 10.0 0.00 0.00 0.00 71 1025.9
20200219062016 42 0 7.0 9.0 0.00 0.00 0.00 71 1026.0
20200219061017 42 0 8.0 10.0 0.00 0.00 0.00 71 1026.0
20200219060017 42 0 6.0 8.0 0.00 0.00 0.00 72 1025.9
20200219055016 43 0 8.0 10.0 0.00 0.00 0.00 71 1025.6
20200219054016 43 0 8.0 10.0 0.00 0.00 0.00 71 1025.7
20200219053016 43 0 7.0 11.0 0.00 0.00 0.00 71 1025.6
20200219052016 43 0 9.0 11.0 0.00 0.00 0.00 70 1025.6
20200219051016 44 338 7.0 9.0 0.00 0.00 0.00 70 1025.5
20200219050016 44 0 8.0 10.0 0.00 0.00 0.00 71 1025.6
20200219045016 44 23 8.0 11.0 0.00 0.00 0.00 70 1025.5
20200219044016 44 0 10.0 16.0 0.00 0.00 0.00 69 1025.1
20200219043016 45 0 5.0 8.0 0.00 0.00 0.00 69 1025.4
20200219042016 45 0 8.0 11.0 0.00 0.00 0.00 68 1025.1
20200219041016 45 0 9.0 15.0 0.00 0.00 0.00 69 1025.0
20200219040016 46 0 8.0 11.0 0.00 0.00 0.00 69 1025.1
20200219035015 46 0 10.0 12.0 0.00 0.00 0.00 68 1025.0
20200219034015 46 23 9.0 16.0 0.00 0.00 0.00 68 1025.0
20200219033016 46 0 10.0 14.0 0.00 0.00 0.00 68 1024.8
20200219032016 47 0 12.0 16.0 0.00 0.00 0.00 68 1024.5
20200219031015 47 0 5.0 8.0 0.00 0.00 0.00 68 1024.5
20200219030016 47 23 5.0 7.0 0.00 0.00 0.00 67 1024.8
20200219025016 48 0 8.0 11.0 0.00 0.00 0.00 67 1024.6
20200219024024 48 0 8.0 13.0 0.00 0.00 0.00 66 1024.2
20200219023016 48 0 10.0 13.0 0.00 0.00 0.00 65 1023.8
20200219021016 49 0 10.0 13.0 0.00 0.00 0.00 63 1023.3
20200219020016 50 338 7.0 10.0 0.00 0.00 0.00 62 1023.1
20200219015016 51 0 9.0 11.0 0.00 0.00 0.00 61 1023.0
20200219014015 51 0 11.0 16.0 0.00 0.00 0.00 60 1023.0
20200219013015 52 0 8.0 11.0 0.00 0.00 0.00 59 1022.8
20200219012015 52 0 10.0 13.0 0.00 0.00 0.00 59 1022.7
20200219011015 52 0 9.0 13.0 0.00 0.00 0.00 59 1022.7
20200219010015 53 0 8.0 12.0 0.00 0.00 0.00 59 1022.7
20200219005220 53 0 5.0 9.0 0.00 0.00 0.00 58 1022.7
20200219004015 53 0 5.0 8.0 0.00 0.00 0.00 57 1022.5
20200219003015 54 0 8.0 10.0 0.00 0.00 0.00 56 1022.3
20200219002015 54 0 6.0 8.0 0.00 0.00 0.00 56 1022.1
20200219001016 54 23 7.0 10.0 0.00 0.00 0.00 56 1021.9
20200219000015 54 0 4.0 6.0 0.00 0.00 0.00 56 1021.6
20200218235015 54 45 4.0 6.0 0.00 0.00 0.00 56 1021.5
20200218233015 54 0 6.0 11.0 0.00 0.00 0.00 54 1020.9
20200218232015 54 0 7.0 10.0 0.00 0.00 0.00 54 1021.1
20200218231015 54 45 9.0 12.0 0.00 0.00 0.00 53 1021.4
20200218230015 55 23 9.0 12.0 0.00 0.00 0.00 53 1021.3
20200218225015 55 68 9.0 14.0 0.00 0.00 0.00 53 1021.3
20200218223015 54 23 10.0 15.0 0.00 0.00 0.00 53 1020.6
20200218222017 54 23 15.0 24.0 0.00 0.00 0.00 52 1020.4
20200218221017 54 0 13.0 19.0 0.00 0.00 0.00 52 1020.0
20200218220017 55 23 13.0 19.0 0.00 0.00 0.00 53 1020.0
20200218215017 54 23 11.0 18.0 0.00 0.00 0.00 53 1019.8
20200218214017 55 0 12.0 16.0 0.00 0.00 0.00 52 1019.7
20200218213017 55 0 14.0 19.0 0.00 0.00 0.00 52 1020.0
20200218212017 55 0 9.0 12.0 0.00 0.00 0.00 52 1019.8
20200218211017 55 0 14.0 20.0 0.00 0.00 0.00 51 1019.7
20200218210017 55 0 16.0 25.0 0.00 0.00 0.00 50 1019.8
20200218205017 56 0 14.0 22.0 0.00 0.00 0.00 50 1020.0
20200218204016 56 0 16.0 22.0 0.00 0.00 0.00 49 1019.7
20200218203017 56 0 18.0 23.0 0.00 0.00 0.00 48 1019.7
20200218202016 56 0 17.0 25.0 0.00 0.00 0.00 49 1019.8
20200218201016 56 0 11.0 15.0 0.00 0.00 0.00 49 1019.4
20200218200016 56 0 17.0 23.0 0.00 0.00 0.00 48 1019.3
20200218195016 56 0 15.0 19.0 0.00 0.00 0.00 47 1019.0
20200218194017 56 0 12.0 16.0 0.00 0.00 0.00 46 1019.0
20200218193017 56 0 17.0 23.0 0.00 0.00 0.00 45 1018.8
20200218192017 57 23 14.0 23.0 0.00 0.00 0.00 43 1018.6
20200218191017 57 0 12.0 16.0 0.00 0.00 0.00 43 1018.6
20200218190016 56 23 16.0 23.0 0.00 0.00 0.00 42 1018.7
20200218185016 56 0 19.0 26.0 0.00 0.00 0.00 43 1018.6
20200218184016 55 0 16.0 22.0 0.00 0.00 0.00 44 1018.8
20200218183016 55 45 11.0 17.0 0.00 0.00 0.00 45 1018.9
20200218182017 54 0 17.0 23.0 0.00 0.00 0.00 46 1018.8
20200218181016 53 0 18.0 26.0 0.00 0.00 0.00 48 1019.0
20200218180017 52 0 12.0 16.0 0.00 0.00 0.00 49 1019.0
20200218175016 52 0 19.0 26.0 0.00 0.00 0.00 49 1019.4
20200218174016 51 0 18.0 25.0 0.00 0.00 0.00 50 1019.2
20200218173016 51 0 13.0 18.0 0.00 0.00 0.00 51 1019.2
20200218172016 51 0 14.0 21.0 0.00 0.00 0.00 52 1019.1
20200218171016 51 0 16.0 22.0 0.00 0.00 0.00 52 1019.0
20200218170016 50 0 16.0 21.0 0.00 0.00 0.00 53 1018.7
20200218165016 50 23 23.0 28.0 0.00 0.00 0.00 54 1018.7
20200218164016 50 23 17.0 24.0 0.00 0.00 0.00 56 1018.6
20200218163016 49 0 18.0 22.0 0.00 0.00 0.00 56 1018.4
20200218162016 49 0 16.0 22.0 0.00 0.00 0.00 57 1018.4
20200218161016 49 0 16.0 26.0 0.00 0.00 0.00 58 1018.2
20200218160016 49 0 14.0 19.0 0.00 0.00 0.00 59 1018.3
20200218154016 48 0 13.0 19.0 0.00 0.00 0.00 62 1018.1
20200218153016 48 0 18.0 24.0 0.00 0.00 0.00 63 1017.9
20200218152016 48 0 20.0 26.0 0.00 0.00 0.00 65 1018.1
20200218151016 47 0 12.0 20.0 0.00 0.00 0.00 68 1018.0
20200218150016 47 0 18.0 26.0 0.00 0.00 0.00 70 1017.6
20200218144016 48 0 18.0 23.0 0.00 0.00 0.00 69 1017.4
20200218143016 48 0 12.0 15.0 0.00 0.00 0.00 69 1017.4
20200218142016 49 23 15.0 23.0 0.00 0.00 0.00 67 1017.1
20200218141016 49 0 9.0 12.0 0.00 0.00 0.00 68 1016.5
20200218140015 49 0 12.0 20.0 0.00 0.00 0.00 67 1016.0
20200218135015 50 0 11.0 15.0 0.00 0.00 0.00 64 1015.9
20200218134015 50 0 12.0 16.0 0.00 0.00 0.00 65 1015.7
20200218133016 50 0 16.0 20.0 0.00 0.00 0.00 66 1015.2
20200218132015 50 0 15.0 22.0 0.00 0.00 0.00 66 1015.2
20200218131016 50 0 16.0 21.0 0.00 0.00 0.00 66 1014.9
20200218130015 50 23 18.0 24.0 0.00 0.00 0.00 66 1014.8
20200218125015 51 0 8.0 12.0 0.00 0.00 0.00 68 1014.5
20200218124015 51 0 10.0 19.0 0.00 0.00 0.00 69 1014.4
20200218123015 51 0 16.0 20.0 0.00 0.00 0.00 71 1014.0
20200218122015 52 0 11.0 17.0 0.00 0.00 0.00 73 1013.9
20200218121015 52 0 13.0 17.0 0.00 0.00 0.00 74 1013.6
20200218120015 53 0 10.0 14.0 0.00 0.00 0.00 76 1013.7
20200218115015 54 0 10.0 16.0 0.00 0.00 0.00 80 1013.7
20200218114016 54 0 12.0 16.0 0.00 0.00 0.00 82 1013.7
20200218113015 55 0 13.0 19.0 0.00 0.00 0.00 83 1013.7
20200218112015 55 0 13.0 18.0 0.00 0.00 0.00 85 1013.5
20200218111015 55 0 9.0 14.0 0.00 0.00 0.00 85 1013.3
20200218110015 55 0 14.0 21.0 0.00 0.00 0.00 85 1013.1
20200218105016 56 0 9.0 14.0 0.00 0.00 0.00 85 1012.9
20200218104015 56 0 14.0 18.0 0.00 0.00 0.00 84 1012.6
20200218103015 57 0 14.0 16.0 0.00 0.00 0.00 83 1012.6
20200218102015 57 0 13.0 19.0 0.00 0.00 0.00 82 1012.3
20200218101015 58 23 13.0 18.0 0.00 0.00 0.00 81 1012.1
20200218100015 58 0 11.0 13.0 0.00 0.00 0.00 80 1012.2
20200218095015 59 0 9.0 20.0 0.00 0.00 0.00 80 1012.0